Time;durP1;ratioP1;P1;durP2;ratioP2;P2;SDS_P1;SDS_P2;PMS_P1;PMS_P2;Temp;Humidity;BMP_temperature;BMP_pressure;BME280_temperature;BME280_humidity;BME280_pressure;Samples;Min_cycle;Max_cycle;Signal;HPM_P1;HPM_P2
2022/05/04 00:00:26;;;;;;;0.40;0.27;;;;;;;10.12;87.04;101256.88;5073911;28;20905;-74
2022/05/04 00:02:53;;;;;;;0.40;0.30;;;;;;;10.17;85.01;101251.44;5073857;28;20445;-74
2022/05/04 00:05:19;;;;;;;0.40;0.30;;;;;;;10.10;84.04;101262.59;5073951;28;20442;-74
2022/05/04 00:07:47;;;;;;;0.40;0.30;;;;;;;9.97;83.51;101265.13;5073651;28;20445;-74
2022/05/04 00:10:14;;;;;;;0.40;0.30;;;;;;;9.92;85.34;101262.44;5073470;28;20477;-74
2022/05/04 00:12:40;;;;;;;0.40;0.30;;;;;;;9.84;86.10;101263.84;5073662;28;20481;-74
2022/05/04 00:15:08;;;;;;;0.40;0.30;;;;;;;9.85;85.04;101260.03;5073764;28;20445;-74
2022/05/04 00:17:35;;;;;;;0.40;0.30;;;;;;;9.89;85.24;101258.38;5073685;28;20464;-74
2022/05/04 00:20:01;;;;;;;0.40;0.30;;;;;;;9.80;84.72;101260.06;5073276;28;20522;-74
2022/05/04 00:22:28;;;;;;;0.43;0.30;;;;;;;9.72;85.46;101253.34;5073593;28;20441;-75
2022/05/04 00:24:56;;;;;;;0.40;0.30;;;;;;;9.58;87.73;101257.75;5073228;28;20935;-74
2022/05/04 00:27:23;;;;;;;0.40;0.30;;;;;;;9.68;87.43;101256.88;5073473;28;20474;-75
2022/05/04 00:29:49;;;;;;;0.40;0.30;;;;;;;9.66;87.46;101249.03;5073437;28;20461;-74
2022/05/04 00:32:17;;;;;;;0.40;0.30;;;;;;;9.64;87.98;101256.63;5073165;28;20930;-74
2022/05/04 00:34:44;;;;;;;0.40;0.30;;;;;;;9.57;88.46;101253.41;5073044;28;20933;-74
2022/05/04 00:37:10;;;;;;;0.40;0.30;;;;;;;9.42;89.01;101253.47;5073533;28;20445;-74
2022/05/04 00:39:37;;;;;;;0.40;0.30;;;;;;;9.47;88.42;101259.66;5073294;28;20462;-74
2022/05/04 00:42:12;;;;;;;0.40;0.30;;;;;;;9.46;88.45;101257.25;5073409;28;20437;-74
2022/05/04 00:44:39;;;;;;;0.40;0.30;;;;;;;9.32;88.81;101255.13;5073362;28;20429;-74
2022/05/04 00:47:07;;;;;;;0.60;0.57;;;;;;;9.11;90.09;101261.69;5073268;28;20510;-74
2022/05/04 00:49:33;;;;;;;0.60;0.60;;;;;;;9.20;89.19;101253.81;5072814;28;21044;-74
2022/05/04 00:52:00;;;;;;;0.40;0.30;;;;;;;9.04;89.29;101258.47;5073110;28;20445;-74
2022/05/04 00:54:27;;;;;;;0.40;0.30;;;;;;;9.04;89.74;101258.47;5073208;28;20481;-74
2022/05/04 00:56:54;;;;;;;0.40;0.30;;;;;;;9.01;89.23;101261.72;5073161;28;20436;-74
2022/05/04 00:59:22;;;;;;;0.40;0.33;;;;;;;9.00;87.12;101262.81;5072759;28;20978;-74
2022/05/04 01:01:48;;;;;;;0.40;0.30;;;;;;;8.86;87.23;101256.34;5073047;28;20478;-72
2022/05/04 01:04:15;;;;;;;0.40;0.30;;;;;;;8.69;87.51;101265.53;5073024;28;20433;-71
2022/05/04 01:06:42;;;;;;;0.40;0.30;;;;;;;8.65;87.14;101269.88;5073048;28;20437;-71
2022/05/04 01:09:08;;;;;;;1.03;1.03;;;;;;;8.75;86.96;101269.84;5072112;28;20477;-69
2022/05/04 01:11:36;;;;;;;0.40;0.30;;;;;;;8.58;87.41;101266.63;5072837;28;20413;-72
2022/05/04 01:14:04;;;;;;;0.40;0.30;;;;;;;8.51;87.14;101263.41;5072916;28;20539;-72
2022/05/04 01:16:33;;;;;;;0.40;0.30;;;;;;;8.37;88.95;101271.22;5073062;28;20486;-71
2022/05/04 01:19:00;;;;;;;0.40;0.30;;;;;;;8.23;90.78;101273.59;5072524;28;20999;-72
2022/05/04 01:21:27;;;;;;;0.40;0.30;;;;;;;8.20;91.51;101266.03;5072996;28;20518;-72
2022/05/04 01:23:55;;;;;;;0.40;0.30;;;;;;;8.18;92.42;101272.78;5072958;28;20445;-72
2022/05/04 01:26:22;;;;;;;0.40;0.30;;;;;;;8.12;92.87;101271.97;5072864;28;20452;-72
2022/05/04 01:28:49;;;;;;;0.40;0.30;;;;;;;8.22;92.13;101269.28;5072800;28;20461;-72
2022/05/04 01:31:16;;;;;;;0.40;0.30;;;;;;;8.28;91.43;101268.22;5072865;28;20444;-72
2022/05/04 01:33:42;;;;;;;0.40;0.30;;;;;;;8.42;90.58;101267.72;5072775;28;20488;-72
2022/05/04 01:36:09;;;;;;;0.40;0.30;;;;;;;8.33;90.79;101268.22;5072798;28;20518;-71
2022/05/04 01:38:36;;;;;;;0.40;0.30;;;;;;;8.33;90.23;101270.91;5072716;28;20498;-72
2022/05/04 01:41:04;;;;;;;0.50;0.50;;;;;;;8.18;91.44;101264.69;5072654;28;20438;-72
2022/05/04 01:43:31;;;;;;;0.40;0.30;;;;;;;8.15;91.67;101263.34;5072672;28;20437;-71
2022/05/04 01:45:57;;;;;;;0.40;0.30;;;;;;;8.23;91.17;101264.69;5072286;28;20869;-72
2022/05/04 01:48:24;;;;;;;1.30;1.23;;;;;;;8.17;90.97;101276.56;5072311;28;20437;-71
2022/05/04 01:50:50;;;;;;;0.40;0.30;;;;;;;8.14;90.72;101267.09;5072663;28;20857;-71
2022/05/04 01:53:17;;;;;;;0.40;0.30;;;;;;;8.19;88.61;101269.00;5072579;28;20481;-71
2022/05/04 01:55:45;;;;;;;0.40;0.30;;;;;;;8.12;87.20;101268.47;5072733;28;20548;-71
2022/05/04 01:58:14;;;;;;;0.40;0.30;;;;;;;7.89;87.48;101270.56;5072697;28;20864;-71
2022/05/04 02:00:40;;;;;;;0.40;0.30;;;;;;;7.86;87.43;101265.69;5072262;28;21057;-71
2022/05/04 02:03:07;;;;;;;0.40;0.30;;;;;;;7.68;89.32;101269.69;5072550;28;20499;-71
2022/05/04 02:05:33;;;;;;;0.40;0.30;;;;;;;7.61;90.78;101268.31;5072259;28;20947;-71
2022/05/04 02:08:00;;;;;;;0.40;0.30;;;;;;;7.70;89.10;101261.31;5072512;28;20448;-71
2022/05/04 02:10:26;;;;;;;0.40;0.30;;;;;;;7.60;88.64;101264.81;5072077;28;20472;-71
2022/05/04 02:12:53;;;;;;;0.40;0.30;;;;;;;7.57;88.46;101268.84;5072445;28;20445;-71
2022/05/04 02:15:21;;;;;;;0.40;0.30;;;;;;;7.70;88.78;101269.41;5072462;28;20874;-70
2022/05/04 02:17:47;;;;;;;0.40;0.30;;;;;;;7.76;89.36;101265.69;5072462;28;20445;-71
2022/05/04 02:20:14;;;;;;;0.40;0.30;;;;;;;7.76;90.00;101271.88;5072173;28;20457;-72
2022/05/04 02:22:41;;;;;;;0.40;0.30;;;;;;;7.58;91.23;101261.56;5075468;28;20449;-72
2022/05/04 02:25:08;;;;;;;0.40;0.30;;;;;;;7.57;91.33;101265.34;5075979;28;20441;-71
2022/05/04 02:27:34;;;;;;;0.40;0.30;;;;;;;7.57;90.85;101262.66;5075624;28;20945;-72
2022/05/04 02:30:01;;;;;;;0.40;0.30;;;;;;;7.44;91.99;101263.94;5075760;28;20470;-72
2022/05/04 02:32:28;;;;;;;0.40;0.30;;;;;;;7.39;92.15;101257.72;5075828;28;20468;-71
2022/05/04 02:37:58;;;;;;;0.40;0.30;;;;;;;7.29;92.54;101267.38;5075584;28;20409;-71
2022/05/04 02:40:26;;;;;;;0.40;0.30;;;;;;;7.41;92.31;101277.13;5075550;28;20461;-71
2022/05/04 02:42:52;;;;;;;0.40;0.30;;;;;;;7.43;92.04;101273.09;5075697;28;20495;-71
2022/05/04 02:45:19;;;;;;;0.40;0.30;;;;;;;7.34;92.41;101275.47;5075331;28;20942;-71
2022/05/04 02:47:46;;;;;;;0.40;0.30;;;;;;;7.26;92.69;101273.31;5075637;28;20511;-71
2022/05/04 02:50:13;;;;;;;0.50;0.40;;;;;;;7.24;91.39;101272.72;5075179;28;20464;-72
2022/05/04 02:52:39;;;;;;;0.40;0.30;;;;;;;7.36;89.21;101267.16;5075211;28;20989;-73
2022/05/04 02:55:07;;;;;;;0.40;0.30;;;;;;;7.24;89.52;101263.84;5075320;28;20477;-73
2022/05/04 02:57:34;;;;;;;0.40;0.30;;;;;;;7.02;88.33;101272.06;5075391;28;20452;-73
2022/05/04 03:00:00;;;;;;;0.40;0.30;;;;;;;7.15;87.80;101266.22;5075250;28;20536;-72
2022/05/04 03:02:29;;;;;;;0.40;0.30;;;;;;;7.14;87.48;101266.50;5075009;28;20441;-72
2022/05/04 03:04:59;;;;;;;0.40;0.30;;;;;;;7.07;88.00;101280.19;5075429;28;20442;-73
2022/05/04 03:07:26;;;;;;;0.40;0.30;;;;;;;6.97;87.57;101270.16;5075268;28;20487;-73
2022/05/04 03:09:53;;;;;;;0.40;0.30;;;;;;;6.99;87.71;101277.97;5074778;28;20978;-72
2022/05/04 03:12:19;;;;;;;0.40;0.30;;;;;;;6.95;88.85;101266.94;5075145;28;20445;-72
2022/05/04 03:14:46;;;;;;;0.40;0.30;;;;;;;6.85;91.76;101272.22;5075098;28;20572;-72
2022/05/04 03:17:13;;;;;;;0.40;0.30;;;;;;;6.86;92.11;101273.03;5075022;28;20444;-71
2022/05/04 03:19:39;;;;;;;0.40;0.30;;;;;;;6.86;92.08;101262.25;5074971;28;20465;-72
2022/05/04 03:22:07;;;;;;;0.40;0.30;;;;;;;6.85;92.18;101266.03;5074931;28;20441;-72
2022/05/04 03:24:34;;;;;;;0.40;0.30;;;;;;;6.87;92.57;101270.09;5076151;28;20434;-72
2022/05/04 03:27:01;;;;;;;0.40;0.30;;;;;;;6.92;91.75;101262.06;5074942;28;20456;-72
2022/05/04 03:29:27;;;;;;;0.40;0.30;;;;;;;7.04;91.12;101267.25;5074541;28;20465;-72
2022/05/04 03:31:53;;;;;;;0.40;0.30;;;;;;;7.10;90.85;101268.88;5074381;28;20487;-72
2022/05/04 03:34:20;;;;;;;0.40;0.30;;;;;;;6.96;91.46;101267.72;5074687;28;20481;-72
2022/05/04 03:36:47;;;;;;;0.40;0.30;;;;;;;6.96;91.54;101268.53;5074691;28;20820;-72
2022/05/04 03:39:15;;;;;;;0.40;0.30;;;;;;;7.01;90.92;101270.47;5074511;28;20464;-73
2022/05/04 03:41:41;;;;;;;0.40;0.30;;;;;;;6.86;92.01;101267.66;5074245;28;20957;-70
2022/05/04 03:44:08;;;;;;;0.40;0.30;;;;;;;6.76;92.60;101269.19;5074478;28;20817;-74
2022/05/04 03:46:43;;;;;;;0.40;0.30;;;;;;;6.96;91.40;101273.13;5074159;28;20471;-74
2022/05/04 03:49:09;;;;;;;0.40;0.30;;;;;;;6.89;91.50;101276.03;5074359;28;20535;-73
2022/05/04 03:51:35;;;;;;;0.40;0.30;;;;;;;6.98;91.06;101276.34;5074299;28;20453;-73
2022/05/04 03:54:02;;;;;;;0.40;0.30;;;;;;;7.03;89.21;101277.19;5073905;28;21002;-73
2022/05/04 03:56:30;;;;;;;0.40;0.30;;;;;;;6.95;89.59;101276.88;5074205;28;20532;-74
2022/05/04 03:58:57;;;;;;;0.40;0.30;;;;;;;7.02;88.49;101277.47;5073799;28;20457;-73
2022/05/04 04:01:23;;;;;;;0.40;0.30;;;;;;;7.07;86.90;101275.59;5074141;28;20444;-73
2022/05/04 04:03:49;;;;;;;0.40;0.30;;;;;;;7.00;87.08;101274.22;5074011;28;20464;-73
2022/05/04 04:06:16;;;;;;;0.40;0.30;;;;;;;7.11;87.35;101273.19;5074033;28;20456;-72
2022/05/04 04:08:43;;;;;;;0.40;0.30;;;;;;;6.92;91.39;101278.22;5073524;28;21021;-73
2022/05/04 04:11:10;;;;;;;0.40;0.30;;;;;;;7.02;91.33;101277.47;5073990;28;20433;-73
2022/05/04 04:13:39;;;;;;;0.40;0.30;;;;;;;7.14;91.05;101280.78;5073875;28;20446;-73
2022/05/04 04:16:05;;;;;;;0.40;0.30;;;;;;;7.21;91.40;101278.63;5073840;28;20540;-73
2022/05/04 04:18:32;;;;;;;0.40;0.30;;;;;;;7.27;91.49;101276.81;5073806;28;20441;-74
2022/05/04 04:23:42;;;;;;;0.40;0.30;;;;;;;7.15;93.13;101287.78;5073569;28;20448;-74
2022/05/04 04:26:10;;;;;;;0.40;0.30;;;;;;;7.30;91.46;101301.34;5073661;28;20441;-72
2022/05/04 04:28:39;;;;;;;0.40;0.30;;;;;;;7.40;91.71;101291.69;5073616;28;20516;-72
2022/05/04 04:31:08;;;;;;;2.70;2.60;;;;;;;7.48;91.86;101299.25;5073635;28;20445;-72
2022/05/04 04:33:35;;;;;;;0.40;0.30;;;;;;;7.52;92.13;101303.03;5073304;28;20938;-72
2022/05/04 04:36:02;;;;;;;0.40;0.30;;;;;;;7.53;93.01;101304.69;5073395;28;20488;-71
2022/05/04 04:38:29;;;;;;;0.40;0.30;;;;;;;7.57;94.30;101303.09;5073403;28;20441;-72
2022/05/04 04:40:55;;;;;;;1.23;1.17;;;;;;;7.74;94.08;101308.25;5073471;28;20445;-71
2022/05/04 04:43:22;;;;;;;0.40;0.30;;;;;;;7.80;94.42;101315.31;5073158;28;20449;-72
2022/05/04 04:45:51;;;;;;;0.40;0.30;;;;;;;7.92;94.87;101307.78;5073126;28;20441;-72
2022/05/04 04:48:19;;;;;;;0.40;0.33;;;;;;;7.96;95.39;101310.75;5073367;28;20487;-72
2022/05/04 04:50:47;;;;;;;0.40;0.30;;;;;;;8.13;94.53;101316.75;5073038;28;20862;-72
2022/05/04 04:53:14;;;;;;;0.40;0.30;;;;;;;8.22;92.74;101312.44;5073244;28;20829;-72
2022/05/04 04:55:41;;;;;;;0.50;0.40;;;;;;;8.25;91.40;101311.94;5073119;28;21065;-72
2022/05/04 04:58:07;;;;;;;0.40;0.30;;;;;;;8.34;90.93;101318.41;5073175;28;20450;-72
2022/05/04 05:00:34;;;;;;;0.40;0.30;;;;;;;8.41;90.61;101320.06;5072979;28;20465;-72
2022/05/04 05:03:02;;;;;;;0.40;0.30;;;;;;;8.45;91.21;101319.25;5073034;28;20456;-72
2022/05/04 05:05:29;;;;;;;0.40;0.30;;;;;;;8.58;91.25;101321.44;5073083;28;20490;-72
2022/05/04 05:07:55;;;;;;;0.40;0.30;;;;;;;8.61;92.46;101316.59;5072811;28;20442;-71
2022/05/04 05:10:22;;;;;;;0.40;0.30;;;;;;;8.70;92.79;101312.25;5072523;28;20481;-76
2022/05/04 05:12:50;;;;;;;0.40;0.30;;;;;;;8.73;93.54;101322.53;5073079;28;20445;-69
2022/05/04 05:18:02;;;;;;;0.40;0.30;;;;;;;8.88;93.20;101327.09;5072792;28;20409;-74
2022/05/04 05:20:30;;;;;;;0.40;0.30;;;;;;;8.94;93.29;101323.31;5072694;28;20468;-74
2022/05/04 05:22:57;;;;;;;0.40;0.27;;;;;;;9.03;92.80;101329.78;5072949;28;20815;-74
2022/05/04 05:25:23;;;;;;;6.10;5.70;;;;;;;9.08;93.39;101324.41;5072727;28;20441;-74
2022/05/04 05:27:50;;;;;;;0.40;0.30;;;;;;;9.28;93.36;101327.03;5072916;28;20448;-74
2022/05/04 05:30:16;;;;;;;0.40;0.30;;;;;;;9.49;92.55;101327.00;5072847;28;20831;-74
2022/05/04 05:32:43;;;;;;;0.40;0.30;;;;;;;9.57;92.22;101329.94;5072828;28;20441;-74
2022/05/04 05:35:11;;;;;;;0.40;0.30;;;;;;;9.68;91.86;101322.59;5072577;28;20477;-73
2022/05/04 05:37:37;;;;;;;0.40;0.30;;;;;;;9.82;91.19;101333.63;5072408;28;20970;-74
2022/05/04 05:40:05;;;;;;;0.40;0.30;;;;;;;9.92;90.83;101328.19;5072599;28;20515;-73
2022/05/04 05:42:32;;;;;;;0.40;0.30;;;;;;;10.10;90.14;101340.28;5072346;28;20449;-73
2022/05/04 05:44:58;;;;;;;0.40;0.30;;;;;;;10.29;89.63;101340.47;5072709;28;20437;-73
2022/05/04 05:47:25;;;;;;;0.40;0.30;;;;;;;10.49;88.96;101336.81;5072746;28;20448;-73
2022/05/04 05:49:51;;;;;;;0.43;0.30;;;;;;;10.67;88.21;101341.56;5072573;28;20461;-73
2022/05/04 05:52:19;;;;;;;0.93;0.93;;;;;;;10.85;87.30;101338.16;5072644;28;20468;-74
2022/05/04 05:54:45;;;;;;;0.70;0.70;;;;;;;10.92;86.41;101334.31;5072160;28;21063;-74
2022/05/04 05:57:12;;;;;;;0.40;0.30;;;;;;;11.07;85.70;101343.13;5075058;28;20452;-74
2022/05/04 05:59:38;;;;;;;0.40;0.30;;;;;;;11.21;85.09;101337.03;5076321;28;20465;-74
2022/05/04 06:02:05;;;;;;;0.40;0.30;;;;;;;11.30;85.50;101343.44;5075973;28;20986;-73
2022/05/04 06:04:32;;;;;;;0.40;0.30;;;;;;;11.37;85.17;101335.75;5076321;28;20436;-75
2022/05/04 06:06:58;;;;;;;0.40;0.30;;;;;;;11.49;84.71;101338.06;5076361;28;20445;-74
2022/05/04 06:09:26;;;;;;;0.40;0.30;;;;;;;11.62;84.67;101335.47;5075937;28;20480;-75
2022/05/04 06:11:54;;;;;;;0.40;0.30;;;;;;;11.77;84.08;101339.09;5076183;28;20859;-73
2022/05/04 06:14:20;;;;;;;0.40;0.30;;;;;;;11.94;82.55;101328.59;5075689;28;20957;-75
2022/05/04 06:16:50;;;;;;;0.70;0.70;;;;;;;12.12;82.09;101335.16;5075752;28;21006;-74
2022/05/04 06:19:16;;;;;;;0.40;0.30;;;;;;;12.26;80.82;101338.78;5075937;28;20465;-74
2022/05/04 06:21:43;;;;;;;0.40;0.30;;;;;;;12.38;80.66;101335.59;5075953;28;20502;-73
2022/05/04 06:24:10;;;;;;;0.40;0.30;;;;;;;12.47;79.24;101335.72;5075837;28;20445;-75
2022/05/04 06:26:37;;;;;;;0.40;0.30;;;;;;;12.56;78.53;101344.81;5075876;28;20444;-75
2022/05/04 06:29:04;;;;;;;0.40;0.30;;;;;;;12.68;78.45;101337.03;5075606;28;20473;-75
2022/05/04 06:34:14;;;;;;;0.40;0.30;;;;;;;12.97;78.03;101346.88;5075519;28;20468;-75
2022/05/04 06:36:42;;;;;;;0.40;0.30;;;;;;;13.03;77.08;101348.44;5075672;28;20442;-75
2022/05/04 06:39:10;;;;;;;0.40;0.30;;;;;;;13.04;76.16;101352.75;5075571;28;20457;-75
2022/05/04 06:41:40;;;;;;;0.40;0.30;;;;;;;13.05;75.86;101347.00;5075574;28;20445;-75
2022/05/04 06:44:07;;;;;;;0.40;0.30;;;;;;;13.18;75.34;101350.06;5075622;28;20498;-76
2022/05/04 06:46:34;;;;;;;0.40;0.30;;;;;;;13.27;74.69;101349.09;5075570;28;20815;-75
2022/05/04 06:49:00;;;;;;;0.40;0.30;;;;;;;13.34;73.97;101348.72;5075417;28;20514;-75
2022/05/04 06:51:27;;;;;;;1.80;1.70;;;;;;;13.45;73.27;101352.03;5075420;28;20444;-75
2022/05/04 06:53:53;;;;;;;0.40;0.30;;;;;;;13.58;73.69;101349.31;5075355;28;20449;-71
2022/05/04 06:56:19;;;;;;;0.40;0.30;;;;;;;13.67;72.31;101352.16;5074948;28;20889;-74
2022/05/04 06:58:47;;;;;;;0.40;0.30;;;;;;;13.71;71.74;101357.78;5075216;28;20469;-75
2022/05/04 07:01:14;;;;;;;0.40;0.30;;;;;;;13.76;71.66;101355.78;5075259;28;20449;-74
2022/05/04 07:03:41;;;;;;;0.40;0.30;;;;;;;13.84;71.47;101349.63;5074979;28;21016;-74
2022/05/04 07:06:07;;;;;;;0.40;0.20;;;;;;;13.91;71.77;101348.41;5074950;28;20975;-74
2022/05/04 07:08:34;;;;;;;0.97;0.97;;;;;;;13.94;71.56;101353.22;5074431;28;20448;-74
2022/05/04 07:11:01;;;;;;;0.40;0.30;;;;;;;14.09;71.66;101344.75;5075251;28;20509;-74
2022/05/04 07:13:27;;;;;;;0.40;0.30;;;;;;;14.26;70.23;101346.84;5075118;28;20445;-74
2022/05/04 07:15:56;;;;;;;0.40;0.30;;;;;;;14.34;68.76;101352.38;5075057;28;20481;-74
2022/05/04 07:18:23;;;;;;;0.40;0.30;;;;;;;14.21;67.64;101347.75;5075182;28;20442;-74
2022/05/04 07:20:49;;;;;;;0.40;0.30;;;;;;;14.31;68.12;101350.25;5075021;28;20433;-74
2022/05/04 07:23:17;;;;;;;0.40;0.30;;;;;;;14.39;67.89;101346.78;5074968;28;20460;-74
2022/05/04 07:25:43;;;;;;;0.40;0.30;;;;;;;14.46;68.20;101359.19;5074615;28;20442;-74
2022/05/04 07:28:10;;;;;;;0.40;0.30;;;;;;;14.43;67.88;101352.41;5074575;28;20938;-74
2022/05/04 07:30:36;;;;;;;0.40;0.30;;;;;;;14.39;68.44;101348.72;5074778;28;20568;-73
2022/05/04 07:33:04;;;;;;;0.40;0.30;;;;;;;14.31;68.81;101344.78;5074321;28;20514;-74
2022/05/04 07:35:31;;;;;;;0.40;0.30;;;;;;;14.21;69.47;101355.09;5074586;28;20481;-74
2022/05/04 07:37:58;;;;;;;0.73;0.73;;;;;;;14.12;70.25;101352.28;5074809;28;20448;-73
2022/05/04 07:43:08;;;;;;;0.40;0.30;;;;;;;14.22;71.10;101349.38;5074478;28;20420;-74
2022/05/04 07:45:35;;;;;;;0.40;0.30;;;;;;;14.17;70.59;101349.47;5074540;28;20438;-74
2022/05/04 07:48:01;;;;;;;0.40;0.30;;;;;;;14.19;70.47;101346.44;5074103;28;20437;-68
2022/05/04 07:50:29;;;;;;;0.40;0.30;;;;;;;14.27;70.46;101349.25;5073660;28;20527;-71
2022/05/04 07:52:56;;;;;;;0.40;0.30;;;;;;;14.42;69.71;101358.19;5074115;28;20452;-69
2022/05/04 07:55:23;;;;;;;0.40;0.30;;;;;;;14.55;69.13;101351.91;5073996;28;20484;-72
2022/05/04 07:57:49;;;;;;;0.40;0.30;;;;;;;14.61;66.48;101356.94;5074069;28;20449;-71
2022/05/04 08:05:46;;;;;;;0.40;0.30;;;;;;;14.88;63.93;101361.47;5073868;28;20944;-75
2022/05/04 08:08:13;;;;;;;0.40;0.30;;;;;;;14.97;63.80;101358.00;5073754;28;20441;-74
2022/05/04 08:10:40;;;;;;;0.40;0.20;;;;;;;15.03;63.97;101359.47;5073232;28;20473;-76
2022/05/04 08:13:07;;;;;;;0.40;0.30;;;;;;;15.18;62.47;101361.00;5073673;28;20572;-76
2022/05/04 08:15:34;;;;;;;0.40;0.30;;;;;;;15.29;61.20;101359.63;5073620;28;20476;-76
2022/05/04 08:18:01;;;;;;;0.40;0.20;;;;;;;15.38;60.66;101361.25;5073404;28;20442;-71
2022/05/04 08:20:29;;;;;;;0.40;0.30;;;;;;;15.42;60.82;101363.38;5072572;28;20844;-73
2022/05/04 08:22:57;;;;;;;0.40;0.30;;;;;;;15.63;61.04;101362.50;5072872;28;20495;-73
2022/05/04 08:25:24;;;;;;;0.40;0.30;;;;;;;15.91;59.77;101361.47;5073246;28;20558;-73
2022/05/04 08:27:50;;;;;;;0.40;0.30;;;;;;;16.18;58.14;101366.69;5073378;28;20449;-72
2022/05/04 08:30:17;;;;;;;0.40;0.30;;;;;;;16.43;58.44;101362.38;5073069;28;20548;-72
2022/05/04 08:32:44;;;;;;;0.40;0.30;;;;;;;16.57;57.97;101357.53;5073215;28;20521;-72
2022/05/04 08:35:12;;;;;;;0.40;0.30;;;;;;;16.61;56.45;101358.50;5072654;28;21020;-73
2022/05/04 08:37:39;;;;;;;0.40;0.20;;;;;;;16.63;55.65;101356.22;5073048;28;20536;-72
2022/05/04 08:40:09;;;;;;;0.40;0.30;;;;;;;16.70;56.44;101360.44;5072906;28;20465;-73
2022/05/04 08:42:39;;;;;;;0.40;0.30;;;;;;;16.63;56.20;101344.50;5073168;28;20458;-72
2022/05/04 08:45:09;;;;;;;0.40;0.20;;;;;;;16.66;55.95;101357.53;5073213;28;20430;-72
2022/05/04 08:47:37;;;;;;;0.40;0.20;;;;;;;16.68;55.49;101352.53;5073005;28;20500;-72
2022/05/04 08:50:08;;;;;;;0.40;0.30;;;;;;;16.73;55.90;101349.66;5072884;28;20606;-72
2022/05/04 08:52:37;;;;;;;0.40;0.30;;;;;;;16.80;57.33;101351.91;5073137;28;20471;-72
2022/05/04 08:55:05;;;;;;;0.40;0.30;;;;;;;16.89;55.73;101356.22;5072958;28;20450;-73
2022/05/04 08:57:33;;;;;;;0.40;0.30;;;;;;;16.95;54.93;101351.38;5072570;28;21042;-72
2022/05/04 08:59:59;;;;;;;0.40;0.30;;;;;;;17.00;54.58;101347.66;5073052;28;20492;-72
2022/05/04 09:02:26;;;;;;;0.40;0.30;;;;;;;17.04;56.50;101349.44;5073122;28;20456;-73
2022/05/04 09:04:52;;;;;;;0.40;0.23;;;;;;;17.16;55.24;101346.03;5073109;28;20480;-73
2022/05/04 09:07:23;;;;;;;0.40;0.20;;;;;;;17.36;53.96;101348.06;5072722;28;20829;-72
2022/05/04 09:09:51;;;;;;;0.40;0.20;;;;;;;17.53;53.34;101341.72;5072586;28;21116;-73
2022/05/04 09:12:18;;;;;;;0.40;0.20;;;;;;;17.75;55.65;101337.09;5072928;28;20433;-72
2022/05/04 09:14:46;;;;;;;0.40;0.20;;;;;;;18.04;55.27;101347.25;5072815;28;20445;-73
2022/05/04 09:17:16;;;;;;;0.40;0.30;;;;;;;18.32;53.56;101347.53;5072507;28;20884;-73
2022/05/04 09:20:45;;;;;;;0.40;0.30;;;;;;;18.45;51.35;101342.91;5073023;28;20826;-73
2022/05/04 09:22:42;;;;;;;0.40;0.20;;;;;;;18.66;50.56;101340.94;5072539;28;20439;-73
2022/05/04 09:25:18;;;;;;;0.40;0.30;;;;;;;18.80;49.64;101343.44;5074372;28;20470;-73
2022/05/04 09:27:44;;;;;;;0.40;0.30;;;;;;;18.79;48.64;101350.88;5073070;28;20431;-73
2022/05/04 09:30:12;;;;;;;0.40;0.30;;;;;;;18.74;47.68;101339.31;5073649;28;20460;-73
2022/05/04 09:32:40;;;;;;;0.40;0.20;;;;;;;18.92;49.75;101337.97;5076756;28;20476;-73
2022/05/04 09:35:12;;;;;;;0.40;0.30;;;;;;;19.18;48.92;101334.97;5076773;28;20445;-73
2022/05/04 09:46:07;;;;;;;0.40;0.20;;;;;;;19.35;48.53;101333.94;5076371;28;20409;-72
2022/05/04 09:48:35;;;;;;;0.40;0.30;;;;;;;19.24;47.00;101338.28;5076410;28;20826;-73
2022/05/04 09:51:04;;;;;;;0.40;0.30;;;;;;;19.29;47.95;101336.09;5076295;28;20445;-73
2022/05/04 09:53:31;;;;;;;0.40;0.30;;;;;;;19.35;nan;101332.00;5076699;28;20437;-72
2022/05/04 09:55:58;;;;;;;0.40;0.20;;;;;;;19.55;48.44;101338.53;5076394;28;20481;-73
2022/05/04 09:58:26;;;;;;;0.40;0.20;;;;;;;19.52;46.43;101338.41;5076472;28;20444;-72
2022/05/04 10:00:53;;;;;;;0.40;0.30;;;;;;;19.56;47.41;101339.31;5076489;28;20429;-73
2022/05/04 10:03:21;;;;;;;0.40;0.27;;;;;;;19.72;47.95;101332.03;5076087;28;20957;-73
2022/05/04 10:05:48;;;;;;;0.40;0.30;;;;;;;19.79;46.88;101335.00;5076001;28;20524;-73
2022/05/04 10:08:15;;;;;;;0.40;0.30;;;;;;;19.84;47.29;101332.03;5076333;28;20453;-72
2022/05/04 10:10:43;;;;;;;0.40;0.30;;;;;;;20.06;47.25;101338.19;5075705;28;20477;-73
2022/05/04 10:13:10;;;;;;;0.40;0.30;;;;;;;19.90;46.56;101338.88;5076255;28;20449;-73
2022/05/04 10:15:39;;;;;;;0.40;0.20;;;;;;;19.93;46.38;101336.59;5076043;28;20482;-72
2022/05/04 10:18:10;;;;;;;0.40;0.30;;;;;;;20.06;46.33;101330.72;5076132;28;20452;-73
2022/05/04 10:20:40;;;;;;;0.40;0.20;;;;;;;20.10;46.09;101330.84;5075740;28;20499;-72
2022/05/04 10:23:10;;;;;;;0.40;0.30;;;;;;;20.47;47.23;101333.47;5075707;28;20445;-73
2022/05/04 10:25:38;;;;;;;0.40;0.20;;;;;;;20.54;46.55;101326.25;5076128;28;20425;-73
2022/05/04 10:28:07;;;;;;;0.40;0.30;;;;;;;20.69;45.29;101321.94;5076114;28;20467;-72
2022/05/04 10:30:34;;;;;;;0.40;0.30;;;;;;;20.81;45.01;101316.38;5076106;28;20493;-73
2022/05/04 10:33:02;;;;;;;0.40;0.40;;;;;;;20.76;45.12;101313.88;5076050;28;20827;-73
2022/05/04 10:35:34;;;;;;;0.40;0.30;;;;;;;20.72;46.01;101318.50;5075467;28;20954;-73
2022/05/04 10:38:33;;;;;;;0.40;0.27;;;;;;;20.90;45.97;101313.47;5076130;28;20430;-73
2022/05/04 10:41:01;;;;;;;0.40;0.30;;;;;;;21.00;45.46;101320.41;5074969;28;20465;-73
2022/05/04 10:43:36;;;;;;;0.40;0.30;;;;;;;20.94;45.36;101325.38;5075049;28;20441;-73
2022/05/04 10:46:11;;;;;;;0.40;0.30;;;;;;;21.01;46.17;101324.75;5075707;28;20468;-72
2022/05/04 10:48:42;;;;;;;0.40;0.30;;;;;;;21.03;44.40;101319.66;5075794;28;20451;-73
2022/05/04 10:51:18;;;;;;;0.40;0.30;;;;;;;21.06;44.88;101321.72;5075423;28;20938;-73
2022/05/04 10:53:48;;;;;;;0.40;0.30;;;;;;;21.01;44.06;101319.22;5075527;28;20464;-73
2022/05/04 10:56:17;;;;;;;0.40;0.30;;;;;;;21.07;44.25;101315.06;5075479;28;20489;-73
2022/05/04 10:58:53;;;;;;;0.40;0.20;;;;;;;21.09;43.83;101315.50;5075466;28;20461;-73
2022/05/04 11:01:22;;;;;;;0.40;0.30;;;;;;;20.88;45.83;101313.00;5075544;28;20461;-73
2022/05/04 11:03:52;;;;;;;0.40;0.30;;;;;;;20.89;44.89;101315.41;5075459;28;20438;-72
2022/05/04 11:06:30;;;;;;;0.40;0.20;;;;;;;20.79;44.80;101307.66;5075348;28;20445;-73
2022/05/04 11:08:59;;;;;;;0.40;0.30;;;;;;;20.75;45.10;101300.44;5074974;28;20492;-73
2022/05/04 11:11:26;;;;;;;0.40;0.20;;;;;;;20.82;45.67;101306.94;5075446;28;20430;-73
2022/05/04 11:13:53;;;;;;;0.40;0.30;;;;;;;20.92;45.09;101298.16;5075282;28;20445;-73
2022/05/04 11:16:21;;;;;;;0.40;0.30;;;;;;;21.06;45.62;101302.44;5075570;28;20489;-73
2022/05/04 11:18:47;;;;;;;0.40;0.30;;;;;;;21.63;44.52;101304.66;5075154;28;20461;-73
2022/05/04 11:21:15;;;;;;;0.40;0.30;;;;;;;22.83;41.60;101304.78;5075317;28;20452;-73
2022/05/04 11:23:47;;;;;;;0.40;0.30;;;;;;;23.74;39.49;101300.41;5075533;28;20441;-73
2022/05/04 11:26:19;;;;;;;0.40;0.30;;;;;;;23.65;38.33;101297.13;5075485;28;20449;-73
2022/05/04 11:28:47;;;;;;;0.40;0.30;;;;;;;23.31;39.03;101304.47;5074828;28;20461;-73
2022/05/04 11:31:13;;;;;;;0.40;0.20;;;;;;;23.47;39.12;101293.25;5075120;28;20453;-72
2022/05/04 11:33:41;;;;;;;0.40;0.30;;;;;;;23.73;39.00;101287.75;5074581;28;20796;-72
2022/05/04 11:36:08;;;;;;;0.40;0.20;;;;;;;24.65;39.86;101287.31;5074821;28;20543;-73
2022/05/04 11:38:35;;;;;;;0.40;0.30;;;;;;;25.63;37.18;101290.53;5074681;28;20450;-75
2022/05/04 11:41:02;;;;;;;0.40;0.30;;;;;;;26.75;36.39;101292.63;5074603;28;20456;-74
2022/05/04 11:43:33;;;;;;;0.40;0.30;;;;;;;28.07;32.65;101307.28;5074651;28;20441;-74
2022/05/04 11:46:04;;;;;;;0.40;0.30;;;;;;;27.96;33.15;101308.50;5074538;28;20852;-74
2022/05/04 11:48:31;;;;;;;0.40;0.30;;;;;;;27.85;32.23;101302.97;5074088;28;20931;-75
2022/05/04 11:50:57;;;;;;;0.40;0.30;;;;;;;26.73;32.48;101295.00;5074479;28;20434;-73
2022/05/04 11:53:24;;;;;;;0.40;0.20;;;;;;;26.07;33.36;101289.59;5074284;28;20444;-73
2022/05/04 11:55:50;;;;;;;0.40;0.30;;;;;;;25.73;34.24;101289.03;5073845;28;20456;-72
2022/05/04 11:58:17;;;;;;;0.40;0.30;;;;;;;25.06;35.87;101281.78;5074159;28;20488;-72